Time;durP1;ratioP1;P1;durP2;ratioP2;P2;SDS_P1;SDS_P2;PMS_P1;PMS_P2;Temp;Humidity;BMP_temperature;BMP_pressure;BME280_temperature;BME280_humidity;BME280_pressure;Samples;Min_cycle;Max_cycle;Signal;HPM_P1;HPM_P2
2022/09/22 00:00:59;;;;;;;;;7.75;7.75;;;;;;;;5023959;28;11487;-84
2022/09/22 00:03:29;;;;;;;;;8.00;8.00;;;;;;;;5024909;28;11626;-82
2022/09/22 00:06:04;;;;;;;;;8.25;6.50;;;;;;;;5028954;28;11521;-85
2022/09/22 00:08:34;;;;;;;;;6.00;6.00;;;;;;;;5024464;28;11498;-85
2022/09/22 00:11:04;;;;;;;;;9.00;8.00;;;;;;;;5024615;28;12404;-82
2022/09/22 00:13:31;;;;;;;;;2.00;2.00;;;;;;;;5022706;28;11538;-81
2022/09/22 00:16:00;;;;;;;;;7.00;6.00;;;;;;;;5023886;28;11516;-80
2022/09/22 00:18:27;;;;;;;;;7.25;7.25;;;;;;;;5023138;28;11618;-82
2022/09/22 00:20:55;;;;;;;;;11.50;8.00;;;;;;;;5023109;28;11402;-82
2022/09/22 00:23:26;;;;;;;;;6.00;6.00;;;;;;;;5023196;28;12240;-82
2022/09/22 00:25:53;;;;;;;;;8.00;8.00;;;;;;;;5018489;28;11513;-81
2022/09/22 00:28:21;;;;;;;;;8.75;8.50;;;;;;;;5023654;28;11442;-83
2022/09/22 00:30:48;;;;;;;;;6.25;6.25;;;;;;;;5022076;28;12101;-82
2022/09/22 00:33:15;;;;;;;;;8.50;8.50;;;;;;;;5024157;28;11409;-84
2022/09/22 00:35:43;;;;;;;;;11.00;6.00;;;;;;;;5005187;28;11441;-81
2022/09/22 00:38:11;;;;;;;;;6.50;6.50;;;;;;;;5023934;28;11419;-82
2022/09/22 00:40:39;;;;;;;;;9.00;9.00;;;;;;;;5017432;28;11500;-81
2022/09/22 00:43:18;;;;;;;;;15.25;12.25;;;;;;;;5022301;28;11515;-81
2022/09/22 00:45:46;;;;;;;;;9.25;8.25;;;;;;;;5022578;28;11583;-81
2022/09/22 00:48:13;;;;;;;;;9.00;9.00;;;;;;;;5021944;28;11416;-81
2022/09/22 00:50:41;;;;;;;;;8.50;8.50;;;;;;;;5023363;28;11465;-82
2022/09/22 00:53:11;;;;;;;;;8.50;8.50;;;;;;;;5007262;28;11419;-80
2022/09/22 00:55:42;;;;;;;;;12.50;9.50;;;;;;;;5027939;28;11450;-79
2022/09/22 00:58:13;;;;;;;;;13.00;10.50;;;;;;;;5026638;28;11424;-81
2022/09/22 01:00:40;;;;;;;;;8.25;7.00;;;;;;;;5020941;28;11384;-81
2022/09/22 01:03:12;;;;;;;;;9.50;9.50;;;;;;;;4988992;28;11588;-80
2022/09/22 01:05:40;;;;;;;;;9.50;9.50;;;;;;;;5006005;28;11410;-80
2022/09/22 01:08:08;;;;;;;;;10.75;10.75;;;;;;;;5007520;28;11445;-81
2022/09/22 01:10:36;;;;;;;;;9.00;9.00;;;;;;;;5006545;28;11478;-80
2022/09/22 01:13:14;;;;;;;;;13.50;13.50;;;;;;;;5006459;28;11504;-81
2022/09/22 01:15:53;;;;;;;;;11.50;7.50;;;;;;;;5007288;28;11526;-80
2022/09/22 01:18:26;;;;;;;;;13.50;13.50;;;;;;;;5004891;28;11516;-80
2022/09/22 01:21:19;;;;;;;;;13.50;12.00;;;;;;;;5020896;28;11534;-80
2022/09/22 01:24:28;;;;;;;;;12.00;12.00;;;;;;;;5003898;28;11547;-81
2022/09/22 01:27:25;;;;;;;;;11.75;11.75;;;;;;;;5003726;28;11563;-81
2022/09/22 01:30:20;;;;;;;;;8.50;8.50;;;;;;;;4994925;28;11515;-81
2022/09/22 01:33:24;;;;;;;;;11.50;9.00;;;;;;;;5026066;28;12220;-80
2022/09/22 01:36:04;;;;;;;;;13.00;13.00;;;;;;;;5020161;28;11510;-81
2022/09/22 01:38:37;;;;;;;;;13.75;13.25;;;;;;;;5008734;28;11574;-80
2022/09/22 01:41:07;;;;;;;;;9.00;9.00;;;;;;;;5025388;28;12351;-80
2022/09/22 01:43:40;;;;;;;;;12.25;11.50;;;;;;;;5008690;28;11504;-80
2022/09/22 01:46:12;;;;;;;;;12.75;12.75;;;;;;;;5030346;28;11546;-81
2022/09/22 01:48:44;;;;;;;;;13.75;13.00;;;;;;;;5025281;28;11568;-80
2022/09/22 01:51:15;;;;;;;;;15.00;15.00;;;;;;;;5025172;28;11535;-81
2022/09/22 01:53:45;;;;;;;;;17.25;16.00;;;;;;;;5025160;28;11537;-79
2022/09/22 01:56:14;;;;;;;;;13.25;13.25;;;;;;;;5027817;28;11567;-79
2022/09/22 01:58:46;;;;;;;;;15.25;14.50;;;;;;;;5026161;28;11663;-80
2022/09/22 02:01:16;;;;;;;;;13.75;13.75;;;;;;;;5015585;28;11512;-80
2022/09/22 02:03:48;;;;;;;;;17.75;14.25;;;;;;;;5045816;28;11542;-80
2022/09/22 02:06:21;;;;;;;;;20.00;20.00;;;;;;;;5044688;28;11649;-82
2022/09/22 02:08:53;;;;;;;;;17.00;17.00;;;;;;;;5045747;28;11659;-81
2022/09/22 02:11:20;;;;;;;;;17.25;17.25;;;;;;;;5044868;28;11526;-80
2022/09/22 02:13:48;;;;;;;;;21.00;18.75;;;;;;;;5045792;28;11529;-81
2022/09/22 02:16:19;;;;;;;;;21.00;18.25;;;;;;;;5045435;28;11550;-82
2022/09/22 02:18:50;;;;;;;;;24.75;19.50;;;;;;;;5043614;28;11563;-80
2022/09/22 02:21:18;;;;;;;;;22.25;19.50;;;;;;;;5025109;28;11525;-80
2022/09/22 02:23:46;;;;;;;;;17.50;17.00;;;;;;;;5024606;28;11561;-80
2022/09/22 02:26:16;;;;;;;;;19.50;16.75;;;;;;;;5024965;28;11555;-81
2022/09/22 02:28:45;;;;;;;;;19.50;17.75;;;;;;;;5025687;28;11537;-81
2022/09/22 02:31:14;;;;;;;;;23.75;18.50;;;;;;;;5023710;28;11489;-82
2022/09/22 02:33:42;;;;;;;;;14.25;14.25;;;;;;;;5025758;28;11512;-82
2022/09/22 02:36:21;;;;;;;;;23.75;21.00;;;;;;;;5023320;28;11519;-83
2022/09/22 02:38:56;;;;;;;;;13.25;13.25;;;;;;;;5024907;28;11510;-81
2022/09/22 02:41:28;;;;;;;;;24.75;20.50;;;;;;;;5024257;28;11534;-80
2022/09/22 02:43:59;;;;;;;;;23.50;22.00;;;;;;;;5007573;28;11544;-80
2022/09/22 02:46:32;;;;;;;;;21.00;18.00;;;;;;;;5024729;28;11530;-80
2022/09/22 02:49:03;;;;;;;;;14.25;14.25;;;;;;;;5023291;28;11494;-80
2022/09/22 02:51:31;;;;;;;;;19.75;19.75;;;;;;;;5017236;28;11486;-81
2022/09/22 02:53:59;;;;;;;;;25.75;22.00;;;;;;;;5022960;28;11644;-80
2022/09/22 02:56:27;;;;;;;;;16.25;16.25;;;;;;;;5026400;28;11513;-81
2022/09/22 02:58:54;;;;;;;;;16.75;16.50;;;;;;;;5026159;28;11611;-80
2022/09/22 03:01:21;;;;;;;;;27.00;21.00;;;;;;;;5013502;28;11534;-81
2022/09/22 03:03:48;;;;;;;;;19.00;18.00;;;;;;;;5004473;28;11586;-85
2022/09/22 03:06:17;;;;;;;;;23.00;20.25;;;;;;;;5004500;28;11624;-82
2022/09/22 03:08:45;;;;;;;;;24.50;22.75;;;;;;;;5005188;28;11713;-81
2022/09/22 03:11:12;;;;;;;;;19.00;16.75;;;;;;;;5003691;28;11593;-82
2022/09/22 03:13:39;;;;;;;;;17.00;17.00;;;;;;;;5005756;28;11717;-81
2022/09/22 03:16:07;;;;;;;;;12.50;12.00;;;;;;;;5002612;28;12397;-85
2022/09/22 03:18:34;;;;;;;;;17.25;14.75;;;;;;;;5004962;28;12440;-81
2022/09/22 03:21:01;;;;;;;;;16.50;16.00;;;;;;;;5043023;28;11533;-80
2022/09/22 03:23:30;;;;;;;;;13.25;12.00;;;;;;;;5044180;28;11492;-80
2022/09/22 03:25:58;;;;;;;;;17.75;16.75;;;;;;;;5043511;28;12305;-80
2022/09/22 03:28:25;;;;;;;;;16.50;15.50;;;;;;;;5024638;28;12324;-83
2022/09/22 03:30:52;;;;;;;;;17.25;15.00;;;;;;;;5036426;28;11447;-82
2022/09/22 03:33:20;;;;;;;;;15.25;13.75;;;;;;;;5022632;28;11525;-83
2022/09/22 03:35:47;;;;;;;;;12.50;10.50;;;;;;;;5024100;28;11504;-82
2022/09/22 03:38:14;;;;;;;;;16.00;13.25;;;;;;;;5022395;28;11514;-81
2022/09/22 03:40:51;;;;;;;;;13.00;13.00;;;;;;;;5023547;28;11512;-81
2022/09/22 03:43:18;;;;;;;;;17.00;14.75;;;;;;;;5024606;28;11646;-83
2022/09/22 03:45:46;;;;;;;;;16.75;14.50;;;;;;;;5022109;28;11519;-82
2022/09/22 03:48:13;;;;;;;;;15.25;15.25;;;;;;;;5024703;28;11515;-82
2022/09/22 03:50:40;;;;;;;;;19.75;16.00;;;;;;;;5023157;28;11673;-86
2022/09/22 03:53:08;;;;;;;;;15.25;15.25;;;;;;;;5023690;28;11518;-82
2022/09/22 03:55:36;;;;;;;;;12.75;12.75;;;;;;;;5023037;28;11499;-82
2022/09/22 03:58:04;;;;;;;;;12.00;12.00;;;;;;;;5025026;28;11604;-81
2022/09/22 04:00:31;;;;;;;;;12.25;12.25;;;;;;;;5024244;28;11393;-80
2022/09/22 04:02:59;;;;;;;;;13.75;13.75;;;;;;;;5022286;28;11497;-81
2022/09/22 04:05:26;;;;;;;;;16.25;13.50;;;;;;;;5022913;28;11511;-81
2022/09/22 04:07:54;;;;;;;;;15.25;13.00;;;;;;;;5022666;28;11591;-84
2022/09/22 04:10:22;;;;;;;;;12.50;12.50;;;;;;;;5023652;28;11616;-81
2022/09/22 04:12:49;;;;;;;;;13.00;12.50;;;;;;;;5021433;28;12394;-81
2022/09/22 04:15:18;;;;;;;;;13.00;12.00;;;;;;;;5023127;28;11528;-81
2022/09/22 04:17:45;;;;;;;;;14.50;14.50;;;;;;;;5023734;28;12290;-80
2022/09/22 04:20:13;;;;;;;;;16.00;16.00;;;;;;;;5008412;28;11620;-80
2022/09/22 04:22:40;;;;;;;;;15.50;15.50;;;;;;;;5004184;28;11702;-80
2022/09/22 04:25:09;;;;;;;;;12.00;9.75;;;;;;;;5015510;28;11550;-80
2022/09/22 04:27:36;;;;;;;;;13.50;13.50;;;;;;;;4991349;28;11582;-80
2022/09/22 04:30:04;;;;;;;;;16.00;16.00;;;;;;;;5008882;28;11529;-80
2022/09/22 04:32:33;;;;;;;;;18.50;17.00;;;;;;;;5029635;28;12216;-80
2022/09/22 04:35:00;;;;;;;;;16.75;14.50;;;;;;;;5029153;28;11543;-80
2022/09/22 04:37:28;;;;;;;;;13.25;12.00;;;;;;;;5028289;28;11645;-78
2022/09/22 04:39:55;;;;;;;;;13.00;13.00;;;;;;;;5012305;28;11524;-78
2022/09/22 04:42:22;;;;;;;;;17.75;13.50;;;;;;;;5028197;28;11541;-78
2022/09/22 04:44:49;;;;;;;;;17.00;11.75;;;;;;;;5029639;28;11557;-77
2022/09/22 04:47:17;;;;;;;;;13.75;12.75;;;;;;;;5028614;28;11525;-79
2022/09/22 04:49:46;;;;;;;;;17.25;11.75;;;;;;;;5030066;28;11523;-78
2022/09/22 04:52:13;;;;;;;;;17.00;15.25;;;;;;;;5029015;28;12319;-78
2022/09/22 04:54:40;;;;;;;;;12.00;12.00;;;;;;;;5029197;28;11660;-78
2022/09/22 04:57:08;;;;;;;;;12.25;12.25;;;;;;;;5029891;28;11470;-79
2022/09/22 04:59:35;;;;;;;;;16.50;16.00;;;;;;;;5032160;28;11595;-79
2022/09/22 05:02:02;;;;;;;;;18.75;14.00;;;;;;;;5031920;28;11472;-78
2022/09/22 05:04:29;;;;;;;;;13.50;13.00;;;;;;;;5037862;28;11499;-80
2022/09/22 05:06:58;;;;;;;;;17.75;16.50;;;;;;;;5030301;28;11618;-80
2022/09/22 05:09:27;;;;;;;;;14.25;14.25;;;;;;;;5029213;28;11610;-78
2022/09/22 05:12:00;;;;;;;;;18.50;18.00;;;;;;;;5011818;28;12436;-80
2022/09/22 05:14:27;;;;;;;;;19.75;18.00;;;;;;;;5013131;28;11495;-80
2022/09/22 05:16:55;;;;;;;;;22.25;21.00;;;;;;;;5028445;28;12221;-79
2022/09/22 05:19:22;;;;;;;;;26.75;25.00;;;;;;;;5029367;28;11038;-82
2022/09/22 05:21:50;;;;;;;;;21.25;21.25;;;;;;;;5029367;28;11615;-83
2022/09/22 05:24:18;;;;;;;;;26.00;22.25;;;;;;;;5029943;28;11510;-80
2022/09/22 05:26:46;;;;;;;;;22.25;20.75;;;;;;;;5028979;28;11514;-81
2022/09/22 05:29:13;;;;;;;;;17.50;16.75;;;;;;;;5029387;28;11502;-80
2022/09/22 05:31:40;;;;;;;;;20.75;20.75;;;;;;;;5028728;28;11436;-80
2022/09/22 05:34:08;;;;;;;;;15.50;13.50;;;;;;;;5026900;28;12959;-79
2022/09/22 05:36:35;;;;;;;;;16.00;13.25;;;;;;;;5027663;28;11538;-83
2022/09/22 05:39:02;;;;;;;;;15.50;13.00;;;;;;;;5022627;28;11777;-77
2022/09/22 05:41:31;;;;;;;;;16.75;14.25;;;;;;;;5019208;28;11489;-72
2022/09/22 05:44:00;;;;;;;;;15.25;12.50;;;;;;;;5024839;28;11547;-72
2022/09/22 05:46:27;;;;;;;;;13.25;11.75;;;;;;;;5023229;28;11513;-72
2022/09/22 05:48:54;;;;;;;;;12.50;12.50;;;;;;;;5023938;28;11486;-73
2022/09/22 05:51:21;;;;;;;;;12.00;12.00;;;;;;;;5018811;28;11514;-73
2022/09/22 05:53:49;;;;;;;;;14.25;11.75;;;;;;;;5024221;28;11508;-73
2022/09/22 05:56:16;;;;;;;;;11.75;11.75;;;;;;;;5023711;28;11498;-73
2022/09/22 05:58:46;;;;;;;;;12.00;12.00;;;;;;;;5024704;28;11593;-72
2022/09/22 06:01:14;;;;;;;;;15.50;15.50;;;;;;;;5022400;28;11451;-73
2022/09/22 06:03:41;;;;;;;;;20.25;15.50;;;;;;;;5025125;28;11547;-73
2022/09/22 06:06:08;;;;;;;;;15.50;13.50;;;;;;;;5023595;28;12398;-73
2022/09/22 06:08:36;;;;;;;;;11.25;11.25;;;;;;;;5022971;28;11513;-72
2022/09/22 06:11:03;;;;;;;;;17.00;12.75;;;;;;;;5024332;28;11498;-73
2022/09/22 06:13:31;;;;;;;;;16.00;16.00;;;;;;;;5023098;28;11524;-74
2022/09/22 06:16:01;;;;;;;;;17.25;15.25;;;;;;;;5024033;28;11502;-72
2022/09/22 06:18:30;;;;;;;;;14.25;14.25;;;;;;;;5020792;28;11510;-72
2022/09/22 06:20:58;;;;;;;;;13.25;13.25;;;;;;;;5040769;28;11645;-72
2022/09/22 06:23:26;;;;;;;;;19.25;17.75;;;;;;;;5041388;28;11530;-73
2022/09/22 06:25:57;;;;;;;;;22.25;22.25;;;;;;;;5022967;28;11573;-73
2022/09/22 06:28:25;;;;;;;;;22.00;20.25;;;;;;;;5041984;28;11533;-73
2022/09/22 06:30:52;;;;;;;;;13.25;13.25;;;;;;;;5020302;28;11518;-74
2022/09/22 06:33:22;;;;;;;;;19.25;18.25;;;;;;;;5041067;28;11552;-74
2022/09/22 06:35:50;;;;;;;;;23.50;22.00;;;;;;;;5039826;28;11582;-74
2022/09/22 06:38:18;;;;;;;;;19.50;19.50;;;;;;;;5041317;28;11546;-74
2022/09/22 06:40:45;;;;;;;;;17.50;17.50;;;;;;;;5021861;28;12339;-73
2022/09/22 06:43:21;;;;;;;;;19.75;17.75;;;;;;;;5041153;28;12418;-73
2022/09/22 06:45:49;;;;;;;;;20.00;20.00;;;;;;;;5042278;28;11526;-73
2022/09/22 06:48:17;;;;;;;;;22.75;18.00;;;;;;;;5041491;28;11567;-72
2022/09/22 06:50:50;;;;;;;;;25.75;22.00;;;;;;;;5022363;28;12371;-73
2022/09/22 06:53:18;;;;;;;;;26.50;19.00;;;;;;;;5039256;28;11563;-72
2022/09/22 06:55:46;;;;;;;;;22.00;20.00;;;;;;;;5042849;28;11544;-72
2022/09/22 06:58:22;;;;;;;;;20.00;20.00;;;;;;;;5018910;28;11578;-73
2022/09/22 07:00:52;;;;;;;;;25.75;24.75;;;;;;;;4979554;28;11546;-73
2022/09/22 07:03:21;;;;;;;;;23.50;19.75;;;;;;;;5040583;28;11534;-73
2022/09/22 07:05:59;;;;;;;;;27.50;26.50;;;;;;;;5023016;28;11555;-73
2022/09/22 07:08:27;;;;;;;;;24.50;23.00;;;;;;;;5039341;28;12140;-73
2022/09/22 07:10:56;;;;;;;;;27.25;26.50;;;;;;;;5034195;28;11592;-74
2022/09/22 07:13:24;;;;;;;;;22.00;19.75;;;;;;;;5039563;28;11528;-76
2022/09/22 07:15:51;;;;;;;;;23.50;21.75;;;;;;;;5040210;28;11537;-74
2022/09/22 07:18:19;;;;;;;;;20.75;20.75;;;;;;;;5040311;28;11558;-74
2022/09/22 07:20:47;;;;;;;;;14.00;14.00;;;;;;;;5037135;28;11483;-74
2022/09/22 07:23:20;;;;;;;;;21.50;20.00;;;;;;;;5041264;28;11506;-74
2022/09/22 07:25:55;;;;;;;;;14.50;14.50;;;;;;;;5042123;28;11635;-74
2022/09/22 07:28:24;;;;;;;;;15.50;14.75;;;;;;;;5041089;28;11528;-74
2022/09/22 07:30:51;;;;;;;;;13.75;13.00;;;;;;;;5041333;28;11591;-75
2022/09/22 07:33:20;;;;;;;;;19.50;16.25;;;;;;;;5044220;28;11280;-74
2022/09/22 07:35:47;;;;;;;;;15.50;11.25;;;;;;;;5041502;28;11304;-74
2022/09/22 07:38:17;;;;;;;;;14.25;10.00;;;;;;;;5042307;28;11131;-74
2022/09/22 07:40:52;;;;;;;;;10.75;10.75;;;;;;;;5041652;28;10987;-74
2022/09/22 07:43:19;;;;;;;;;12.75;11.00;;;;;;;;5042507;28;10806;-74
2022/09/22 07:45:54;;;;;;;;;12.25;10.00;;;;;;;;5022311;28;10725;-74
2022/09/22 07:48:40;;;;;;;;;15.00;12.50;;;;;;;;5042585;28;11621;-74
2022/09/22 07:51:10;;;;;;;;;19.75;19.75;;;;;;;;5037232;28;10982;-74
2022/09/22 07:53:40;;;;;;;;;27.75;27.75;;;;;;;;5039507;28;11265;-74
2022/09/22 07:56:11;;;;;;;;;16.25;15.50;;;;;;;;5034402;28;11674;-74
2022/09/22 07:58:40;;;;;;;;;10.25;9.00;;;;;;;;5041012;28;10873;-74
2022/09/22 08:01:08;;;;;;;;;13.00;13.00;;;;;;;;5039349;28;10595;-74
2022/09/22 08:03:38;;;;;;;;;9.50;9.50;;;;;;;;5042377;28;10467;-74
2022/09/22 08:06:10;;;;;;;;;10.25;10.25;;;;;;;;5038487;28;10739;-75
2022/09/22 08:08:45;;;;;;;;;9.50;9.50;;;;;;;;5040282;28;10360;-74
2022/09/22 08:11:14;;;;;;;;;13.50;13.50;;;;;;;;5022318;28;10154;-74
2022/09/22 08:13:43;;;;;;;;;10.25;8.25;;;;;;;;5041617;28;10218;-73
2022/09/22 08:16:11;;;;;;;;;10.00;10.00;;;;;;;;5040213;28;10231;-73
2022/09/22 08:18:39;;;;;;;;;10.25;10.00;;;;;;;;5034562;28;10214;-73
2022/09/22 08:21:07;;;;;;;;;11.25;11.25;;;;;;;;5019059;28;10017;-74
2022/09/22 08:23:36;;;;;;;;;11.50;9.50;;;;;;;;5019385;28;9935;-73
2022/09/22 08:26:07;;;;;;;;;8.00;8.00;;;;;;;;5020186;28;9802;-74
2022/09/22 08:28:35;;;;;;;;;8.00;8.00;;;;;;;;5020169;28;9573;-74
2022/09/22 08:31:03;;;;;;;;;6.67;6.67;;;;;;;;5018848;28;10326;-73
2022/09/22 08:33:32;;;;;;;;;7.00;7.00;;;;;;;;5018753;28;9397;-73
2022/09/22 08:36:02;;;;;;;;;4.67;4.67;;;;;;;;5020242;28;9324;-74
2022/09/22 08:38:30;;;;;;;;;8.00;5.00;;;;;;;;5019860;28;9282;-74
2022/09/22 08:41:08;;;;;;;;;3.50;3.50;;;;;;;;5018684;28;9124;-74
2022/09/22 08:43:39;;;;;;;;;8.25;8.25;;;;;;;;5035008;28;8880;-75
2022/09/22 08:46:06;;;;;;;;;8.50;5.25;;;;;;;;5018930;28;9000;-74
2022/09/22 08:54:07;;;;;;;;;5.75;5.75;;;;;;;;5002849;28;8854;-74
2022/09/22 08:56:42;;;;;;;;;6.50;6.50;;;;;;;;5036597;28;8858;-74
2022/09/22 08:59:14;;;;;;;;;6.00;6.00;;;;;;;;5020946;28;8878;-75
2022/09/22 09:02:08;;;;;;;;;5.00;5.00;;;;;;;;5020989;28;8964;-74
2022/09/22 09:05:02;;;;;;;;;4.00;4.00;;;;;;;;5001186;28;8982;-80
2022/09/22 09:07:42;;;;;;;;;7.75;5.00;;;;;;;;5020041;28;8870;-81
2022/09/22 09:10:24;;;;;;;;;4.00;4.00;;;;;;;;5021413;28;8951;-76
2022/09/22 09:13:08;;;;;;;;;4.50;3.25;;;;;;;;5021465;28;8854;-79
2022/09/22 09:15:43;;;;;;;;;7.75;4.75;;;;;;;;5024446;28;8981;-78
2022/09/22 09:18:14;;;;;;;;;5.50;4.25;;;;;;;;5007992;28;8862;-79
2022/09/22 09:20:45;;;;;;;;;2.75;2.75;;;;;;;;5053346;28;8912;-78
2022/09/22 09:23:17;;;;;;;;;4.50;4.50;;;;;;;;5034189;28;8879;-80
2022/09/22 09:25:47;;;;;;;;;3.75;3.75;;;;;;;;5044508;28;8866;-78
2022/09/22 09:28:20;;;;;;;;;3.00;3.00;;;;;;;;5040859;28;9649;-76
2022/09/22 09:30:50;;;;;;;;;3.75;3.75;;;;;;;;5039024;28;8770;-80
2022/09/22 09:33:28;;;;;;;;;3.25;3.25;;;;;;;;5024277;28;9025;-82
2022/09/22 09:35:57;;;;;;;;;2.80;2.80;;;;;;;;5024755;28;8890;-86
2022/09/22 09:38:28;;;;;;;;;2.80;2.80;;;;;;;;5024701;28;8861;-80
2022/09/22 09:41:00;;;;;;;;;3.80;3.80;;;;;;;;5024630;28;8865;-73
2022/09/22 09:43:29;;;;;;;;;3.60;3.60;;;;;;;;5024840;28;8935;-75
2022/09/22 09:46:07;;;;;;;;;1.80;1.80;;;;;;;;5024457;28;8968;-75
2022/09/22 09:48:40;;;;;;;;;2.00;2.00;;;;;;;;5023811;28;8908;-74
2022/09/22 09:51:11;;;;;;;;;3.40;2.00;;;;;;;;5023786;28;9651;-76
2022/09/22 09:53:43;;;;;;;;;2.00;2.00;;;;;;;;5025537;28;8956;-74
2022/09/22 09:56:23;;;;;;;;;2.00;2.00;;;;;;;;5019457;28;8902;-74
2022/09/22 10:01:52;;;;;;;;;1.00;1.00;;;;;;;;5019762;28;8814;-75
2022/09/22 10:04:28;;;;;;;;;2.20;2.20;;;;;;;;5022486;28;8888;-74
2022/09/22 10:06:56;;;;;;;;;2.00;2.00;;;;;;;;5024064;28;8901;-76
2022/09/22 10:09:26;;;;;;;;;0.80;0.80;;;;;;;;5025072;28;8931;-73
2022/09/22 10:12:00;;;;;;;;;1.00;1.00;;;;;;;;5023940;28;8885;-72
2022/09/22 10:14:32;;;;;;;;;1.00;1.00;;;;;;;;5020825;28;8856;-75
2022/09/22 10:16:59;;;;;;;;;1.60;1.60;;;;;;;;5021663;28;8842;-72
2022/09/22 10:19:29;;;;;;;;;1.00;1.00;;;;;;;;5049616;28;8924;-72
2022/09/22 10:22:17;;;;;;;;;1.00;1.00;;;;;;;;5021242;28;9012;-72
2022/09/22 10:24:54;;;;;;;;;1.00;1.00;;;;;;;;5022216;28;9659;-74
2022/09/22 10:27:23;;;;;;;;;2.40;1.00;;;;;;;;5025490;28;8865;-73
2022/09/22 10:33:05;;;;;;;;;0.80;0.80;;;;;;;;5137196;27;13426;-74
2022/09/22 10:35:34;;;;;;;;;0.60;0.60;;;;;;;;5137574;27;8873;-74
2022/09/22 10:38:08;;;;;;;;;0.60;0.60;;;;;;;;5132394;27;8886;-76
2022/09/22 10:40:38;;;;;;;;;0.60;0.60;;;;;;;;5121441;27;8857;-75
2022/09/22 10:43:08;;;;;;;;;2.00;1.00;;;;;;;;5135319;27;8876;-74
2022/09/22 10:45:42;;;;;;;;;0.60;0.60;;;;;;;;5123285;27;8944;-77
2022/09/22 10:48:18;;;;;;;;;0.00;0.00;;;;;;;;5119865;27;8889;-75
2022/09/22 10:50:59;;;;;;;;;0.40;0.40;;;;;;;;5118479;27;9665;-74
2022/09/22 10:56:13;;;;;;;;;0.00;0.00;;;;;;;;5153273;22;9080;-75
2022/09/22 10:59:08;;;;;;;;;0.20;0.20;;;;;;;;5054305;28;8865;-76
2022/09/22 11:01:47;;;;;;;;;0.00;0.00;;;;;;;;5016480;28;8828;-76
2022/09/22 11:04:40;;;;;;;;;0.40;0.40;;;;;;;;5019513;28;8868;-76
2022/09/22 11:13:08;;;;;;;;;0.60;0.60;;;;;;;;5013160;28;8860;-75
2022/09/22 11:15:52;;;;;;;;;0.60;0.60;;;;;;;;5009605;28;8876;-75
2022/09/22 11:18:38;;;;;;;;;0.20;0.20;;;;;;;;5006512;28;9660;-76
2022/09/22 11:21:15;;;;;;;;;1.00;1.00;;;;;;;;5011580;28;8856;-75
2022/09/22 11:24:08;;;;;;;;;1.20;0.40;;;;;;;;5013796;28;8967;-76
2022/09/22 11:26:47;;;;;;;;;0.00;0.00;;;;;;;;5012068;28;9484;-76
2022/09/22 11:29:56;;;;;;;;;1.00;0.40;;;;;;;;5018846;28;8945;-76
2022/09/22 11:32:36;;;;;;;;;0.80;0.80;;;;;;;;5006220;28;8871;-76
2022/09/22 11:35:19;;;;;;;;;0.60;0.60;;;;;;;;5018273;28;8884;-76
2022/09/22 11:38:00;;;;;;;;;0.80;0.80;;;;;;;;5017572;28;8887;-76
2022/09/22 11:40:36;;;;;;;;;1.00;1.00;;;;;;;;5007699;28;8896;-77
2022/09/22 11:43:18;;;;;;;;;1.00;1.00;;;;;;;;5011932;28;8983;-76
2022/09/22 11:45:52;;;;;;;;;0.20;0.20;;;;;;;;5004009;28;8895;-76
2022/09/22 11:48:34;;;;;;;;;1.00;1.00;;;;;;;;5006829;28;8872;-77
2022/09/22 11:51:19;;;;;;;;;1.00;1.00;;;;;;;;5006034;28;8860;-76
2022/09/22 11:53:57;;;;;;;;;1.80;0.00;;;;;;;;5005420;28;9026;-77
2022/09/22 11:56:38;;;;;;;;;0.20;0.20;;;;;;;;5006801;28;8856;-76
2022/09/22 11:59:15;;;;;;;;;0.80;0.80;;;;;;;;5004722;28;8876;-76
2022/09/22 12:01:43;;;;;;;;;1.00;1.00;;;;;;;;5005780;28;8919;-76
2022/09/22 12:04:19;;;;;;;;;0.20;0.20;;;;;;;;5004167;28;8898;-76
2022/09/22 12:06:49;;;;;;;;;1.60;0.80;;;;;;;;5005231;28;8876;-76
2022/09/22 12:09:27;;;;;;;;;0.20;0.20;;;;;;;;5006574;28;8868;-75
2022/09/22 12:11:55;;;;;;;;;0.20;0.20;;;;;;;;4998706;28;8879;-77
2022/09/22 12:14:23;;;;;;;;;0.20;0.20;;;;;;;;5005936;28;8865;-76
2022/09/22 12:16:55;;;;;;;;;0.00;0.00;;;;;;;;5004921;28;8857;-76
2022/09/22 12:19:29;;;;;;;;;0.00;0.00;;;;;;;;5005662;28;8883;-76
2022/09/22 12:22:04;;;;;;;;;0.20;0.20;;;;;;;;5005736;28;8898;-77
2022/09/22 12:24:33;;;;;;;;;0.20;0.20;;;;;;;;5004429;28;9606;-76
2022/09/22 12:27:10;;;;;;;;;0.20;0.20;;;;;;;;5004957;28;8864;-76
2022/09/22 12:29:38;;;;;;;;;0.00;0.00;;;;;;;;5003353;28;8883;-76
2022/09/22 12:32:06;;;;;;;;;0.20;0.20;;;;;;;;5004457;28;8960;-76
2022/09/22 12:34:38;;;;;;;;;0.00;0.00;;;;;;;;5005145;28;8853;-76
2022/09/22 12:37:11;;;;;;;;;1.20;0.00;;;;;;;;5004702;28;8868;-76
2022/09/22 12:39:42;;;;;;;;;1.20;0.20;;;;;;;;5005935;28;8914;-76
2022/09/22 12:42:20;;;;;;;;;0.20;0.20;;;;;;;;5004286;28;8902;-76
2022/09/22 12:44:51;;;;;;;;;0.20;0.20;;;;;;;;5004702;28;8896;-76
2022/09/22 12:47:22;;;;;;;;;0.00;0.00;;;;;;;;5005183;28;8852;-76
2022/09/22 12:49:51;;;;;;;;;1.20;0.00;;;;;;;;5004263;28;9812;-76
2022/09/22 12:52:53;;;;;;;;;1.00;0.00;;;;;;;;5005365;28;8864;-76
2022/09/22 12:55:37;;;;;;;;;0.00;0.00;;;;;;;;4995606;28;9714;-77
2022/09/22 12:58:28;;;;;;;;;0.20;0.20;;;;;;;;5002983;28;8896;-75
2022/09/22 13:01:17;;;;;;;;;0.00;0.00;;;;;;;;4996829;28;9732;-76
2022/09/22 13:03:51;;;;;;;;;0.20;0.00;;;;;;;;4994756;28;9410;-77
2022/09/22 13:06:56;;;;;;;;;0.20;0.20;;;;;;;;4999136;28;8864;-76
2022/09/22 13:09:25;;;;;;;;;0.20;0.20;;;;;;;;4999825;28;8868;-74
2022/09/22 13:12:32;;;;;;;;;0.00;0.00;;;;;;;;4996461;28;8872;-79
2022/09/22 13:15:26;;;;;;;;;0.00;0.00;;;;;;;;4987663;28;8879;-76
2022/09/22 13:17:53;;;;;;;;;0.00;0.00;;;;;;;;4987202;28;8856;-75
2022/09/22 13:20:24;;;;;;;;;0.40;0.40;;;;;;;;5002319;28;8950;-76
2022/09/22 13:22:54;;;;;;;;;0.00;0.00;;;;;;;;5004828;28;8994;-76
2022/09/22 13:25:27;;;;;;;;;2.40;0.80;;;;;;;;5003676;28;8880;-76
2022/09/22 13:28:08;;;;;;;;;0.00;0.00;;;;;;;;4996506;28;9015;-76
2022/09/22 13:30:38;;;;;;;;;0.20;0.20;;;;;;;;5003523;28;8826;-75
2022/09/22 13:33:06;;;;;;;;;0.20;0.20;;;;;;;;5003929;28;8880;-75
2022/09/22 13:35:36;;;;;;;;;0.00;0.00;;;;;;;;5002473;28;8844;-75
2022/09/22 13:38:04;;;;;;;;;0.00;0.00;;;;;;;;5002865;28;8965;-75
2022/09/22 13:40:33;;;;;;;;;0.00;0.00;;;;;;;;5003540;28;8892;-75
2022/09/22 13:43:03;;;;;;;;;0.00;0.00;;;;;;;;5002890;28;8883;-76
2022/09/22 13:45:31;;;;;;;;;0.60;0.20;;;;;;;;5003254;28;8990;-76
2022/09/22 13:48:06;;;;;;;;;0.00;0.00;;;;;;;;5002769;28;8848;-76
2022/09/22 13:50:33;;;;;;;;;0.00;0.00;;;;;;;;4992458;28;8876;-76
2022/09/22 13:53:01;;;;;;;;;0.60;0.00;;;;;;;;5002925;28;8880;-76
2022/09/22 13:55:31;;;;;;;;;0.00;0.00;;;;;;;;5002379;28;8880;-76
2022/09/22 13:57:59;;;;;;;;;0.00;0.00;;;;;;;;5003547;28;8884;-75
2022/09/22 14:00:30;;;;;;;;;0.00;0.00;;;;;;;;4999604;28;8819;-82
2022/09/22 14:03:01;;;;;;;;;0.00;0.00;;;;;;;;5001588;28;8941;-76
2022/09/22 14:05:31;;;;;;;;;0.20;0.20;;;;;;;;5000531;28;9003;-76
2022/09/22 14:08:03;;;;;;;;;0.00;0.00;;;;;;;;4993024;28;8888;-77
2022/09/22 14:10:31;;;;;;;;;0.00;0.00;;;;;;;;4999266;28;8857;-77
2022/09/22 14:12:59;;;;;;;;;0.00;0.00;;;;;;;;5000720;28;8958;-76
2022/09/22 14:15:39;;;;;;;;;0.20;0.20;;;;;;;;4993553;28;8900;-78
2022/09/22 14:18:16;;;;;;;;;0.00;0.00;;;;;;;;4991785;28;8908;-78
2022/09/22 14:20:44;;;;;;;;;0.40;0.40;;;;;;;;4999528;28;8931;-77
2022/09/22 14:23:17;;;;;;;;;0.80;0.00;;;;;;;;5000180;28;8942;-77
2022/09/22 14:25:45;;;;;;;;;0.00;0.00;;;;;;;;4980415;28;8912;-77
2022/09/22 14:28:23;;;;;;;;;0.00;0.00;;;;;;;;5000462;28;8859;-79
2022/09/22 14:30:51;;;;;;;;;0.00;0.00;;;;;;;;4997650;28;8809;-76
2022/09/22 14:33:24;;;;;;;;;0.00;0.00;;;;;;;;4999277;28;8868;-77
2022/09/22 14:35:59;;;;;;;;;0.00;0.00;;;;;;;;4999692;28;8899;-77
2022/09/22 14:38:28;;;;;;;;;0.00;0.00;;;;;;;;5000334;28;8860;-77
2022/09/22 14:40:58;;;;;;;;;0.00;0.00;;;;;;;;4999573;28;8848;-77
2022/09/22 14:43:37;;;;;;;;;0.00;0.00;;;;;;;;4997193;28;8918;-76
2022/09/22 14:46:23;;;;;;;;;0.20;0.00;;;;;;;;4999404;28;9042;-78
2022/09/22 14:48:55;;;;;;;;;0.00;0.00;;;;;;;;4997204;28;8872;-81
2022/09/22 14:51:24;;;;;;;;;0.00;0.00;;;;;;;;4997753;28;8880;-79
2022/09/22 14:53:54;;;;;;;;;0.00;0.00;;;;;;;;4998450;28;8991;-77
2022/09/22 14:56:26;;;;;;;;;0.00;0.00;;;;;;;;5000757;28;8877;-78
2022/09/22 14:58:58;;;;;;;;;0.00;0.00;;;;;;;;5001923;28;8891;-79
2022/09/22 15:04:17;;;;;;;;;0.00;0.00;;;;;;;;5001746;28;8852;-77
2022/09/22 15:06:45;;;;;;;;;0.00;0.00;;;;;;;;5001112;28;8856;-78
2022/09/22 15:09:22;;;;;;;;;0.00;0.00;;;;;;;;5000532;28;8888;-75
2022/09/22 15:11:52;;;;;;;;;0.00;0.00;;;;;;;;5001281;28;8856;-77
2022/09/22 15:14:39;;;;;;;;;0.00;0.00;;;;;;;;4998492;28;9844;-75
2022/09/22 15:20:21;;;;;;;;;1.00;0.00;;;;;;;;5002049;28;8813;-77
2022/09/22 15:22:49;;;;;;;;;0.00;0.00;;;;;;;;5004600;28;8868;-76
2022/09/22 15:25:17;;;;;;;;;1.40;0.00;;;;;;;;5003786;28;8890;-79
2022/09/22 15:27:45;;;;;;;;;0.00;0.00;;;;;;;;5002245;28;9506;-78
2022/09/22 15:30:15;;;;;;;;;0.00;0.00;;;;;;;;4995675;28;8906;-80